Terminal Aerodrome Forecast
Issued by NWS

Home | Current Version | Previous Version | Text Only | Print | Product List | Glossary On
Versions: 1 2 3 4 5 6 7 8 9 10 11 12 13 14 15 16
000
FTAK31 PAJN 290533
TAFAJN
TAF
PAJN 290533Z 2906/3006 VRB05KT P6SM -SHRA SCT003 BKN010 OVC040
      TEMPO 2906/2909 5SM -SHRA BR BKN003 BKN008 OVC030
     FM290900 10005KT 6SM -SHRA BR BKN004 OVC040
     FM291500 VRB05KT P6SM -SHRA SCT006 BKN040 OVC060
     FM292000 VRB05KT P6SM VCSH FEW010 BKN040 OVC070
     FM292200 25007KT P6SM BKN050 BKN080
     FM300300 VRB05KT P6SM SCT050 BKN080=

USA.gov is the U.S. government's official web portal to all federal, state and local government web resources and services.